createdAt,value
2019-02-05T00:00:40.419Z,53.90
2019-02-05T00:03:11.881Z,54.04
2019-02-05T00:05:42.044Z,54.17
2019-02-05T00:08:12.555Z,54.16
2019-02-05T00:10:42.544Z,54.08
2019-02-05T00:13:14.366Z,54.08
2019-02-05T00:15:44.626Z,54.10
2019-02-05T00:18:14.569Z,54.16
2019-02-05T00:20:45.488Z,54.11
2019-02-05T00:23:15.675Z,54.11
2019-02-05T00:25:45.715Z,54.20
2019-02-05T00:28:16.191Z,54.07
2019-02-05T00:30:46.821Z,53.89
2019-02-05T00:33:17.219Z,53.77
2019-02-05T00:35:51.511Z,53.65
2019-02-05T00:38:21.623Z,53.73
2019-02-05T00:40:53.260Z,53.66
2019-02-05T00:43:23.556Z,53.70
2019-02-05T00:45:53.401Z,53.60
2019-02-05T00:48:23.346Z,53.32
2019-02-05T00:50:53.840Z,53.11
2019-02-05T00:53:24.004Z,53.00
2019-02-05T00:55:54.314Z,52.91
2019-02-05T00:58:24.868Z,52.94
2019-02-05T01:00:54.932Z,52.76
2019-02-05T01:03:24.997Z,52.70
2019-02-05T01:05:55.273Z,52.50
2019-02-05T01:08:26.007Z,52.55
2019-02-05T01:10:56.084Z,52.56
2019-02-05T01:13:26.609Z,52.64
2019-02-05T01:15:57.100Z,52.63
2019-02-05T01:18:27.367Z,52.55
2019-02-05T01:20:58.264Z,52.62
2019-02-05T01:23:28.655Z,52.39
2019-02-05T01:25:59.700Z,51.99
2019-02-05T01:28:33.903Z,51.93
2019-02-05T01:31:04.049Z,51.85
2019-02-05T01:33:34.482Z,51.73
2019-02-05T01:36:06.360Z,51.85
2019-02-05T01:38:37.262Z,51.78
2019-02-05T01:41:09.313Z,51.86
2019-02-05T01:43:41.129Z,51.82
2019-02-05T01:46:11.446Z,51.80
2019-02-05T01:48:41.584Z,51.81
2019-02-05T01:51:12.063Z,51.74
2019-02-05T01:53:42.065Z,52.10
2019-02-05T01:56:12.275Z,52.06
2019-02-05T01:58:43.213Z,52.00
2019-02-05T02:01:13.776Z,52.06
2019-02-05T02:03:44.479Z,52.01
2019-02-05T02:06:18.980Z,51.99
2019-02-05T02:08:49.774Z,51.98
2019-02-05T02:11:20.982Z,51.76
2019-02-05T02:13:52.421Z,51.71
2019-02-05T02:16:25.744Z,51.41
2019-02-05T02:18:56.047Z,51.43
2019-02-05T02:21:25.927Z,51.21
2019-02-05T02:23:56.208Z,51.34
2019-02-05T02:26:26.498Z,51.22
2019-02-05T02:28:56.690Z,51.12
2019-02-05T02:31:27.210Z,51.13
2019-02-05T02:33:57.130Z,51.21
2019-02-05T02:36:27.295Z,51.31
2019-02-05T02:38:58.384Z,51.50
2019-02-05T02:41:28.419Z,51.76
2019-02-05T02:43:58.706Z,51.92
2019-02-05T02:46:29.837Z,51.92
2019-02-05T02:49:01.176Z,51.85
2019-02-05T02:51:31.558Z,51.81
2019-02-05T02:54:01.656Z,51.85
2019-02-05T02:56:31.600Z,51.80
2019-02-05T02:59:02.220Z,51.75
2019-02-05T03:01:32.311Z,51.69
2019-02-05T03:04:03.430Z,51.78
2019-02-05T03:06:34.208Z,51.68
2019-02-05T03:09:07.654Z,51.79
2019-02-05T03:11:38.123Z,51.91
2019-02-05T03:14:09.548Z,52.13
2019-02-05T03:16:39.414Z,52.11
2019-02-05T03:19:09.621Z,52.29
2019-02-05T03:21:40.130Z,52.39
2019-02-05T03:24:10.772Z,52.72
2019-02-05T03:26:40.877Z,52.79
2019-02-05T03:29:11.152Z,52.83
2019-02-05T03:31:41.043Z,52.84
2019-02-05T03:34:10.950Z,53.11
2019-02-05T03:36:41.231Z,53.00
2019-02-05T03:39:11.281Z,53.04
2019-02-05T03:41:41.394Z,52.92
2019-02-05T03:44:12.142Z,52.76
2019-02-05T03:46:42.657Z,52.81
2019-02-05T03:49:12.971Z,52.75
2019-02-05T03:52:12.915Z,52.75
2019-02-05T03:55:32.878Z,52.81
2019-02-05T03:58:23.834Z,52.91
2019-02-05T04:01:43.542Z,53.10
2019-02-05T04:04:46.637Z,53.10
2019-02-05T04:07:52.973Z,53.03
2019-02-05T04:11:22.162Z,53.27
2019-02-05T04:14:31.475Z,53.65
2019-02-05T04:17:36.683Z,53.56
2019-02-05T04:20:50.525Z,53.40
2019-02-05T04:24:08.230Z,53.33
2019-02-05T04:27:04.532Z,53.46
2019-02-05T04:30:14.115Z,53.45
2019-02-05T04:33:06.328Z,53.38
2019-02-05T04:36:26.156Z,53.47
2019-02-05T04:39:41.568Z,53.63
2019-02-05T04:42:53.314Z,54.01
2019-02-05T04:45:49.477Z,54.30
2019-02-05T04:48:57.679Z,54.67
2019-02-05T04:51:59.653Z,54.99
2019-02-05T04:55:18.014Z,55.37
2019-02-05T04:58:18.485Z,55.35
2019-02-05T05:01:17.321Z,55.15
2019-02-05T05:04:46.048Z,54.97
2019-02-05T05:08:05.500Z,54.91
2019-02-05T05:10:37.947Z,54.91
2019-02-05T05:13:14.798Z,54.96
2019-02-05T05:15:45.477Z,55.23
2019-02-05T05:18:15.741Z,55.32
2019-02-05T05:20:46.884Z,55.26
2019-02-05T05:23:17.509Z,55.22
2019-02-05T05:25:47.902Z,55.27
2019-02-05T05:28:18.306Z,55.27
2019-02-05T05:30:48.536Z,55.44
2019-02-05T05:33:19.933Z,55.84
2019-02-05T05:35:50.027Z,56.08
2019-02-05T05:38:20.146Z,56.30
2019-02-05T05:40:54.718Z,56.25
2019-02-05T05:43:24.785Z,56.22
2019-02-05T05:45:55.024Z,56.17
2019-02-05T05:48:25.260Z,56.02
2019-02-05T05:50:55.086Z,55.91
2019-02-05T05:53:25.646Z,55.72
2019-02-05T05:55:55.613Z,55.63
2019-02-05T05:58:25.667Z,55.59
2019-02-05T06:00:59.251Z,55.39
2019-02-05T06:03:29.315Z,55.32
2019-02-05T06:06:00.323Z,55.19
2019-02-05T06:08:31.006Z,54.98
2019-02-05T06:11:01.245Z,54.82
2019-02-05T06:13:32.742Z,54.62
2019-02-05T06:16:06.042Z,54.90
2019-02-05T06:18:36.542Z,55.02
2019-02-05T06:21:06.982Z,55.15
2019-02-05T06:23:38.135Z,55.22
2019-02-05T06:26:09.246Z,55.34
2019-02-05T06:28:39.593Z,55.12
2019-02-05T06:31:09.743Z,55.02
2019-02-05T06:33:39.986Z,55.07
2019-02-05T06:36:11.832Z,55.13
2019-02-05T06:38:44.584Z,55.37
2019-02-05T06:41:14.043Z,55.71
2019-02-05T06:43:43.967Z,55.88
2019-02-05T06:46:14.182Z,56.58
2019-02-05T06:48:44.585Z,56.72
2019-02-05T06:51:14.852Z,56.92
2019-02-05T06:53:45.663Z,57.13
2019-02-05T06:56:16.271Z,57.17
2019-02-05T06:58:46.854Z,57.36
2019-02-05T07:01:16.878Z,57.41
2019-02-05T07:03:47.012Z,57.51
2019-02-05T07:06:17.233Z,57.72
2019-02-05T07:08:47.293Z,57.73
2019-02-05T07:11:21.503Z,57.94
2019-02-05T07:13:51.773Z,58.26
2019-02-05T07:16:21.739Z,58.13
2019-02-05T07:18:52.189Z,57.89
2019-02-05T07:21:22.982Z,57.84
2019-02-05T07:23:54.244Z,57.73
2019-02-05T07:26:24.480Z,57.50
2019-02-05T07:29:00.060Z,57.54
2019-02-05T07:31:28.915Z,57.79
2019-02-05T07:34:00.087Z,57.88
2019-02-05T07:36:32.969Z,58.08
2019-02-05T07:39:05.140Z,58.32
2019-02-05T07:41:35.445Z,58.49
2019-02-05T07:44:05.804Z,58.49
2019-02-05T07:46:37.043Z,58.35
2019-02-05T07:49:08.544Z,58.32
2019-02-05T07:51:42.940Z,58.33
2019-02-05T07:54:13.221Z,58.33
2019-02-05T07:56:43.159Z,58.30
2019-02-05T07:59:13.704Z,58.90
2019-02-05T08:01:44.109Z,59.21
2019-02-05T08:04:17.123Z,59.61
2019-02-05T08:06:47.787Z,59.46
2019-02-05T08:09:17.872Z,59.47
2019-02-05T08:11:48.045Z,59.49
2019-02-05T08:14:22.432Z,59.67
2019-02-05T08:16:52.474Z,59.91
2019-02-05T08:19:22.717Z,60.21
2019-02-05T08:21:54.653Z,59.91
2019-02-05T08:24:24.725Z,60.12
2019-02-05T08:26:55.254Z,59.76
2019-02-05T08:29:29.431Z,59.38
2019-02-05T08:32:00.774Z,60.15
2019-02-05T08:34:31.330Z,60.27
2019-02-05T08:37:02.419Z,60.08
2019-02-05T08:39:32.883Z,59.99
2019-02-05T08:42:04.413Z,60.05
2019-02-05T08:44:36.490Z,60.48
2019-02-05T08:47:06.636Z,61.08
2019-02-05T08:49:37.000Z,60.71
2019-02-05T08:52:08.171Z,60.68
2019-02-05T08:54:40.688Z,60.56
2019-02-05T08:57:11.229Z,60.75
2019-02-05T08:59:43.998Z,60.73
2019-02-05T09:02:16.915Z,60.53
2019-02-05T09:04:47.270Z,60.18
2019-02-05T09:07:17.301Z,59.44
2019-02-05T09:09:47.609Z,59.63
2019-02-05T09:12:18.193Z,59.27
2019-02-05T09:14:48.532Z,59.02
2019-02-05T09:17:24.800Z,58.88
2019-02-05T09:19:56.005Z,58.92
2019-02-05T09:22:26.372Z,59.28
2019-02-05T09:25:00.711Z,59.34
2019-02-05T09:27:32.432Z,59.34
2019-02-05T09:30:03.052Z,59.31
2019-02-05T09:32:35.119Z,59.24
2019-02-05T09:35:07.907Z,59.46
2019-02-05T09:37:39.433Z,59.53
2019-02-05T09:40:14.898Z,59.94
2019-02-05T09:42:45.223Z,60.03
2019-02-05T09:45:19.533Z,59.97
2019-02-05T09:47:49.787Z,60.23
2019-02-05T09:50:19.945Z,60.11
2019-02-05T09:52:50.775Z,59.74
2019-02-05T09:55:21.925Z,59.59
2019-02-05T09:57:52.488Z,59.19
2019-02-05T10:00:27.977Z,58.73
2019-02-05T10:02:59.964Z,58.79
2019-02-05T10:05:30.698Z,58.91
2019-02-05T10:08:01.171Z,59.64
2019-02-05T10:10:35.339Z,60.09
2019-02-05T10:13:06.035Z,60.59
2019-02-05T10:15:39.398Z,60.99
2019-02-05T10:18:13.753Z,61.19
2019-02-05T10:20:44.053Z,60.97
2019-02-05T10:23:14.628Z,60.47
2019-02-05T10:25:44.986Z,60.49
2019-02-05T10:28:16.871Z,60.14
2019-02-05T10:30:47.641Z,60.26
2019-02-05T10:33:18.092Z,60.57
2019-02-05T10:35:48.449Z,60.12
2019-02-05T10:38:18.629Z,59.92
2019-02-05T10:40:48.927Z,60.03
2019-02-05T10:43:18.970Z,59.82
2019-02-05T10:45:49.165Z,59.46
2019-02-05T10:48:19.540Z,58.99
2019-02-05T10:50:49.622Z,58.52
2019-02-05T10:53:20.142Z,58.69
2019-02-05T10:55:50.204Z,58.29
2019-02-05T10:58:21.667Z,57.91
2019-02-05T11:00:55.684Z,57.67
2019-02-05T11:03:29.930Z,57.67
2019-02-05T11:06:00.210Z,57.46
2019-02-05T11:08:34.459Z,57.46
2019-02-05T11:11:04.635Z,57.21
2019-02-05T11:13:37.341Z,56.66
2019-02-05T11:16:08.674Z,56.97
2019-02-05T11:18:38.791Z,56.97
2019-02-05T11:21:16.500Z,57.11
2019-02-05T11:23:47.212Z,57.11
2019-02-05T11:26:17.849Z,56.63
2019-02-05T11:28:48.287Z,56.96
2019-02-05T11:31:20.608Z,56.64
2019-02-05T11:33:51.872Z,56.64
2019-02-05T11:36:24.831Z,56.40
2019-02-05T11:38:59.772Z,55.70
2019-02-05T11:41:29.693Z,55.70
2019-02-05T11:44:01.312Z,55.59
2019-02-05T11:46:32.243Z,55.59
2019-02-05T11:49:05.721Z,55.64
2019-02-05T11:51:36.109Z,55.87
2019-02-05T11:54:10.857Z,55.46
2019-02-05T11:56:41.772Z,55.46
2019-02-05T11:59:16.335Z,55.13
2019-02-05T12:01:46.580Z,55.00
2019-02-05T12:04:16.980Z,54.69
2019-02-05T12:06:50.370Z,54.02
2019-02-05T12:09:24.922Z,54.03
2019-02-05T12:11:56.220Z,53.92
2019-02-05T12:14:26.565Z,54.42
2019-02-05T12:17:04.215Z,54.57
2019-02-05T12:19:37.545Z,54.46
2019-02-05T12:22:09.090Z,54.77
2019-02-05T12:24:43.695Z,54.91
2019-02-05T12:27:15.417Z,55.59
2019-02-05T12:29:47.824Z,56.00
2019-02-05T12:32:26.939Z,56.32
2019-02-05T12:35:00.731Z,56.98
2019-02-05T12:37:36.052Z,57.64
2019-02-05T12:40:12.109Z,57.98
2019-02-05T12:42:46.965Z,57.76
2019-02-05T12:45:22.781Z,57.49
2019-02-05T12:47:55.990Z,57.49
2019-02-05T12:50:36.019Z,57.69
2019-02-05T12:53:10.881Z,57.58
2019-02-05T12:55:44.230Z,57.27
2019-02-05T12:58:17.813Z,57.08
2019-02-05T13:00:58.670Z,57.49
2019-02-05T13:03:25.744Z,57.49
2019-02-05T13:05:56.030Z,57.10
2019-02-05T13:08:26.265Z,57.24
2019-02-05T13:10:56.528Z,57.24
2019-02-05T13:13:26.736Z,56.52
2019-02-05T13:15:57.165Z,56.02
2019-02-05T13:18:27.272Z,56.35
2019-02-05T13:20:57.293Z,56.35
2019-02-05T13:23:27.627Z,56.32
2019-02-05T13:25:57.774Z,56.37
2019-02-05T13:28:27.898Z,56.69
2019-02-05T13:31:07.771Z,57.02
2019-02-05T13:33:31.836Z,57.10
2019-02-05T13:36:05.081Z,56.95
2019-02-05T13:38:47.433Z,56.95
2019-02-05T13:41:19.558Z,57.02
2019-02-05T13:43:50.888Z,57.17
2019-02-05T13:46:21.866Z,57.17
2019-02-05T13:48:52.394Z,56.95
2019-02-05T13:51:24.334Z,57.38
2019-02-05T13:53:55.539Z,57.55
2019-02-05T13:56:26.423Z,57.61
2019-02-05T13:58:59.605Z,57.28
2019-02-05T14:01:34.484Z,57.28
2019-02-05T14:19:52.995Z,58.01
2019-02-05T14:25:42.378Z,57.98
2019-02-05T14:28:16.718Z,57.87
2019-02-05T14:31:32.611Z,58.10
2019-02-05T14:34:41.161Z,58.33
2019-02-05T14:37:13.381Z,60.01
2019-02-05T14:39:51.977Z,60.01
2019-02-05T15:17:12.025Z,61.80
2019-02-05T15:19:49.030Z,61.67
2019-02-05T15:22:22.410Z,61.48
2019-02-05T15:24:59.869Z,61.51
2019-02-05T15:31:22.992Z,62.30
2019-02-05T15:34:12.701Z,62.80
2019-02-05T15:37:07.178Z,62.85
2019-02-05T15:39:46.932Z,63.02
2019-02-05T15:42:19.154Z,63.10
2019-02-05T15:44:55.527Z,63.33
2019-02-05T15:47:32.602Z,63.59
2019-02-05T15:50:08.198Z,63.90
2019-02-05T15:52:38.990Z,64.68
2019-02-05T15:55:11.084Z,64.92
2019-02-05T15:57:42.361Z,65.08
2019-02-05T16:00:15.347Z,65.23
2019-02-05T16:02:48.976Z,65.40
2019-02-05T16:05:21.896Z,65.70
2019-02-05T16:07:54.050Z,66.12
2019-02-05T16:10:28.858Z,66.35
2019-02-05T16:13:05.775Z,66.47
2019-02-05T16:15:37.668Z,66.58
2019-02-05T16:18:10.867Z,66.75
2019-02-05T16:20:47.711Z,66.77
2019-02-05T16:23:20.815Z,66.81
2019-02-05T16:25:52.581Z,67.09
2019-02-05T16:28:23.163Z,66.99
2019-02-05T16:30:54.302Z,67.11
2019-02-05T16:33:24.634Z,67.15
2019-02-05T16:35:58.550Z,67.08
2019-02-05T16:38:29.643Z,67.10
2019-02-05T16:41:04.707Z,67.11
2019-02-05T16:43:50.488Z,67.37
2019-02-05T16:46:24.274Z,67.38
2019-02-05T16:49:04.106Z,67.78
2019-02-05T16:51:36.163Z,67.73
2019-02-05T16:54:06.926Z,67.83
2019-02-05T16:56:39.722Z,67.73
2019-02-05T16:59:09.961Z,67.80
2019-02-05T17:01:41.417Z,68.13
2019-02-05T17:04:12.480Z,68.08
2019-02-05T17:06:44.084Z,68.09
2019-02-05T17:09:17.988Z,68.32
2019-02-05T17:11:56.858Z,68.49
2019-02-05T17:14:42.132Z,68.66
2019-02-05T17:17:35.538Z,69.02
2019-02-05T17:20:16.043Z,69.26
2019-02-05T17:22:49.683Z,69.19
2019-02-05T17:25:22.156Z,69.70
2019-02-05T17:27:58.667Z,69.76
2019-02-05T17:30:36.818Z,69.66
2019-02-05T17:33:12.719Z,69.60
2019-02-05T17:35:50.635Z,69.62
2019-02-05T17:38:25.607Z,69.62
2019-02-05T17:40:57.922Z,69.52
2019-02-05T17:43:33.570Z,69.64
2019-02-05T17:46:27.788Z,69.76
2019-02-05T17:49:03.731Z,69.83
2019-02-05T17:51:39.163Z,69.69
2019-02-05T17:54:21.038Z,69.74
2019-02-05T17:56:55.250Z,69.65
2019-02-05T17:59:31.816Z,69.65
2019-02-05T18:02:18.000Z,69.72
2019-02-05T18:08:33.892Z,69.66
2019-02-05T18:11:13.360Z,69.64
2019-02-05T18:13:48.541Z,69.79
2019-02-05T18:16:29.256Z,69.74
2019-02-05T18:19:00.291Z,69.92
2019-02-05T18:21:42.159Z,70.18
2019-02-05T18:24:12.452Z,70.30
2019-02-05T18:26:56.654Z,70.24
2019-02-05T18:29:38.411Z,70.44
2019-02-05T18:32:27.419Z,70.50
2019-02-05T18:35:05.415Z,70.42
2019-02-05T18:37:45.236Z,70.69
2019-02-05T18:40:20.722Z,70.76
2019-02-05T18:42:56.103Z,71.02
2019-02-05T18:45:32.444Z,71.13
2019-02-05T18:48:09.788Z,71.23
2019-02-05T18:50:45.832Z,71.15
2019-02-05T18:53:23.978Z,70.94
2019-02-05T18:56:02.237Z,71.04
2019-02-05T18:58:42.931Z,71.30
2019-02-05T19:01:15.771Z,71.36
2019-02-05T19:03:48.906Z,71.66
2019-02-05T19:06:24.938Z,71.83
2019-02-05T19:09:00.004Z,71.82
2019-02-05T19:11:32.823Z,71.86
2019-02-05T19:14:07.420Z,72.02
2019-02-05T19:16:43.970Z,72.30
2019-02-05T19:19:17.488Z,72.53
2019-02-05T19:21:51.179Z,72.63
2019-02-05T19:24:44.514Z,72.70
2019-02-05T19:27:18.564Z,72.68
2019-02-05T19:30:08.414Z,72.37
2019-02-05T19:32:42.129Z,72.36
2019-02-05T19:35:21.585Z,72.56
2019-02-05T19:38:07.777Z,72.78
2019-02-05T19:40:41.661Z,72.88
2019-02-05T19:43:23.720Z,72.98
2019-02-05T19:46:18.885Z,73.00
2019-02-05T19:49:03.878Z,72.94
2019-02-05T19:52:04.375Z,72.72
2019-02-05T19:54:38.432Z,72.41
2019-02-05T19:57:36.567Z,72.30
2019-02-05T20:00:09.149Z,72.31
2019-02-05T20:02:44.032Z,72.18
2019-02-05T20:05:15.651Z,71.93
2019-02-05T20:07:49.529Z,71.93
2019-02-05T20:10:27.620Z,71.82
2019-02-05T20:13:07.546Z,71.67
2019-02-05T20:15:42.202Z,71.53
2019-02-05T20:18:19.107Z,71.40
2019-02-05T20:20:56.563Z,71.30
2019-02-05T20:23:38.853Z,71.07
2019-02-05T20:26:16.275Z,71.04
2019-02-05T20:28:47.825Z,70.87
2019-02-05T20:31:20.789Z,70.79
2019-02-05T20:33:58.340Z,70.75
2019-02-05T20:36:46.370Z,70.79
2019-02-05T20:39:26.109Z,70.69
2019-02-05T20:42:05.380Z,70.79
2019-02-05T20:44:47.781Z,70.76
2019-02-05T20:47:21.625Z,70.69
2019-02-05T20:49:55.527Z,70.99
2019-02-05T20:52:37.123Z,71.24
2019-02-05T20:55:15.167Z,71.44
2019-02-05T20:57:50.703Z,71.62
2019-02-05T21:00:24.926Z,71.69
2019-02-05T21:02:56.927Z,71.60
2019-02-05T21:05:45.488Z,71.58
2019-02-05T21:08:31.305Z,71.42
2019-02-05T21:11:08.454Z,71.69
2019-02-05T21:13:40.525Z,71.95
2019-02-05T21:16:19.492Z,72.04
2019-02-05T21:18:55.604Z,72.24
2019-02-05T21:21:33.103Z,72.44
2019-02-05T21:24:12.759Z,72.83
2019-02-05T21:26:47.279Z,73.02
2019-02-05T21:29:43.138Z,73.18
2019-02-05T21:32:24.810Z,73.38
2019-02-05T21:34:58.281Z,73.67
2019-02-05T21:37:37.965Z,73.94
2019-02-05T21:40:26.192Z,74.01
2019-02-05T21:42:59.272Z,74.09
2019-02-05T21:45:38.905Z,74.05
2019-02-05T21:48:12.360Z,73.80
2019-02-05T21:50:45.132Z,73.67
2019-02-05T21:53:21.044Z,73.48
2019-02-05T21:55:59.160Z,73.40
2019-02-05T21:58:35.889Z,73.36
2019-02-05T22:01:09.688Z,73.48
2019-02-05T22:03:44.378Z,73.50
2019-02-05T22:06:18.594Z,73.63
2019-02-05T22:08:50.609Z,73.76
2019-02-05T22:11:25.819Z,73.86
2019-02-05T22:14:13.902Z,73.79
2019-02-05T22:16:49.593Z,73.79
2019-02-05T22:19:30.644Z,73.82
2019-02-05T22:22:07.905Z,73.98
2019-02-05T22:24:44.846Z,73.86
2019-02-05T22:27:21.866Z,73.79
2019-02-05T22:29:53.068Z,73.71
2019-02-05T22:32:26.223Z,73.64
2019-02-05T22:34:58.934Z,73.60
2019-02-05T22:37:29.694Z,73.65
2019-02-05T22:40:01.941Z,73.72
2019-02-05T22:42:32.508Z,73.68
2019-02-05T22:45:10.287Z,73.78
2019-02-05T22:47:40.793Z,73.89
2019-02-05T22:50:19.905Z,73.86
2019-02-05T22:52:52.500Z,73.94
2019-02-05T22:55:26.144Z,74.16
2019-02-05T22:57:58.874Z,74.17
2019-02-05T23:00:48.884Z,74.08
2019-02-05T23:03:29.041Z,73.95
2019-02-05T23:06:34.984Z,73.95
2019-02-05T23:09:24.548Z,74.05
2019-02-05T23:12:33.764Z,74.12
2019-02-05T23:15:19.110Z,74.03
2019-02-05T23:17:50.828Z,74.03
2019-02-05T23:20:26.061Z,74.24
2019-02-05T23:22:57.255Z,74.28
2019-02-05T23:25:30.849Z,74.41
2019-02-05T23:28:04.791Z,74.37
2019-02-05T23:31:05.219Z,74.50
2019-02-05T23:33:36.173Z,74.46
2019-02-05T23:36:06.719Z,74.46
2019-02-05T23:38:42.309Z,74.39
2019-02-05T23:41:13.124Z,74.43
2019-02-05T23:43:48.274Z,74.45
2019-02-05T23:46:22.106Z,74.47
2019-02-05T23:48:55.118Z,74.34
2019-02-05T23:51:30.210Z,74.39
2019-02-05T23:54:01.297Z,74.40
2019-02-05T23:56:34.054Z,74.48
2019-02-05T23:59:06.620Z,74.48
